sensor_id;sensor_type;location;lat;lon;timestamp;P1;durP1;ratioP1;P2;durP2;ratioP2
1701;SDS011;848;48.354;10.064;2022-10-31T00:00:14;20.77;;;8.60;;
1701;SDS011;848;48.354;10.064;2022-10-31T00:02:41;22.52;;;9.00;;
1701;SDS011;848;48.354;10.064;2022-10-31T00:05:08;24.40;;;9.73;;
1701;SDS011;848;48.354;10.064;2022-10-31T00:07:37;20.17;;;8.27;;
1701;SDS011;848;48.354;10.064;2022-10-31T00:10:04;20.92;;;8.85;;
1701;SDS011;848;48.354;10.064;2022-10-31T00:12:32;22.67;;;9.77;;
1701;SDS011;848;48.354;10.064;2022-10-31T00:14:59;20.77;;;9.50;;
1701;SDS011;848;48.354;10.064;2022-10-31T00:17:26;21.77;;;9.13;;
1701;SDS011;848;48.354;10.064;2022-10-31T00:19:53;21.08;;;9.43;;
1701;SDS011;848;48.354;10.064;2022-10-31T00:22:20;20.98;;;9.00;;
1701;SDS011;848;48.354;10.064;2022-10-31T00:24:49;19.35;;;8.70;;
1701;SDS011;848;48.354;10.064;2022-10-31T00:27:17;19.30;;;8.93;;
1701;SDS011;848;48.354;10.064;2022-10-31T00:29:44;23.45;;;9.05;;
1701;SDS011;848;48.354;10.064;2022-10-31T00:32:11;18.58;;;7.75;;
1701;SDS011;848;48.354;10.064;2022-10-31T00:34:39;17.25;;;7.80;;
1701;SDS011;848;48.354;10.064;2022-10-31T00:37:07;19.38;;;8.75;;
1701;SDS011;848;48.354;10.064;2022-10-31T00:39:34;22.20;;;9.10;;
1701;SDS011;848;48.354;10.064;2022-10-31T00:42:03;22.30;;;9.57;;
1701;SDS011;848;48.354;10.064;2022-10-31T00:44:30;18.55;;;7.85;;
1701;SDS011;848;48.354;10.064;2022-10-31T00:46:57;20.27;;;8.43;;
1701;SDS011;848;48.354;10.064;2022-10-31T00:49:24;18.80;;;8.50;;
1701;SDS011;848;48.354;10.064;2022-10-31T00:51:51;18.73;;;8.00;;
1701;SDS011;848;48.354;10.064;2022-10-31T00:54:18;18.73;;;7.82;;
1701;SDS011;848;48.354;10.064;2022-10-31T00:56:46;16.38;;;6.80;;
1701;SDS011;848;48.354;10.064;2022-10-31T00:59:15;17.65;;;7.80;;
1701;SDS011;848;48.354;10.064;2022-10-31T01:01:41;17.05;;;7.63;;
1701;SDS011;848;48.354;10.064;2022-10-31T01:04:08;20.38;;;8.75;;
1701;SDS011;848;48.354;10.064;2022-10-31T01:06:35;17.83;;;7.93;;
1701;SDS011;848;48.354;10.064;2022-10-31T01:09:02;18.08;;;7.50;;
1701;SDS011;848;48.354;10.064;2022-10-31T01:11:29;17.48;;;7.43;;
1701;SDS011;848;48.354;10.064;2022-10-31T01:13:56;18.35;;;7.53;;
1701;SDS011;848;48.354;10.064;2022-10-31T01:16:25;16.00;;;6.70;;
1701;SDS011;848;48.354;10.064;2022-10-31T01:18:54;17.88;;;7.60;;
1701;SDS011;848;48.354;10.064;2022-10-31T01:21:22;16.88;;;7.03;;
1701;SDS011;848;48.354;10.064;2022-10-31T01:23:50;19.27;;;7.22;;
1701;SDS011;848;48.354;10.064;2022-10-31T01:26:18;17.85;;;7.10;;
1701;SDS011;848;48.354;10.064;2022-10-31T01:28:47;18.50;;;6.90;;
1701;SDS011;848;48.354;10.064;2022-10-31T01:31:15;16.33;;;7.20;;
1701;SDS011;848;48.354;10.064;2022-10-31T01:33:44;19.88;;;8.25;;
1701;SDS011;848;48.354;10.064;2022-10-31T01:36:12;26.08;;;7.78;;
1701;SDS011;848;48.354;10.064;2022-10-31T01:38:41;19.95;;;8.55;;
1701;SDS011;848;48.354;10.064;2022-10-31T01:41:08;19.65;;;9.55;;
1701;SDS011;848;48.354;10.064;2022-10-31T01:43:43;21.83;;;9.02;;
1701;SDS011;848;48.354;10.064;2022-10-31T01:46:11;19.05;;;7.97;;
1701;SDS011;848;48.354;10.064;2022-10-31T01:48:39;23.45;;;8.18;;
1701;SDS011;848;48.354;10.064;2022-10-31T01:51:09;21.02;;;8.60;;
1701;SDS011;848;48.354;10.064;2022-10-31T01:53:38;18.40;;;7.40;;
1701;SDS011;848;48.354;10.064;2022-10-31T01:56:06;17.38;;;7.10;;
1701;SDS011;848;48.354;10.064;2022-10-31T01:58:34;17.65;;;6.57;;
1701;SDS011;848;48.354;10.064;2022-10-31T02:01:02;18.58;;;6.95;;
1701;SDS011;848;48.354;10.064;2022-10-31T02:03:30;17.35;;;7.13;;
1701;SDS011;848;48.354;10.064;2022-10-31T02:05:58;16.98;;;7.40;;
1701;SDS011;848;48.354;10.064;2022-10-31T02:08:27;18.48;;;7.18;;
1701;SDS011;848;48.354;10.064;2022-10-31T02:10:56;16.38;;;6.80;;
1701;SDS011;848;48.354;10.064;2022-10-31T02:13:24;19.10;;;7.68;;
1701;SDS011;848;48.354;10.064;2022-10-31T02:15:52;16.35;;;6.72;;
1701;SDS011;848;48.354;10.064;2022-10-31T02:18:21;16.27;;;6.40;;
1701;SDS011;848;48.354;10.064;2022-10-31T02:20:54;17.63;;;7.80;;
1701;SDS011;848;48.354;10.064;2022-10-31T02:32:14;20.02;;;8.00;;
1701;SDS011;848;48.354;10.064;2022-10-31T02:34:50;18.77;;;7.18;;
1701;SDS011;848;48.354;10.064;2022-10-31T02:37:25;15.98;;;6.90;;
1701;SDS011;848;48.354;10.064;2022-10-31T02:39:59;21.73;;;7.80;;
1701;SDS011;848;48.354;10.064;2022-10-31T02:42:32;23.80;;;8.55;;
1701;SDS011;848;48.354;10.064;2022-10-31T02:45:05;17.77;;;7.68;;
1701;SDS011;848;48.354;10.064;2022-10-31T02:47:38;19.95;;;7.28;;
1701;SDS011;848;48.354;10.064;2022-10-31T02:50:06;16.55;;;7.10;;
1701;SDS011;848;48.354;10.064;2022-10-31T02:52:36;17.80;;;6.93;;
1701;SDS011;848;48.354;10.064;2022-10-31T02:55:11;18.77;;;7.60;;
1701;SDS011;848;48.354;10.064;2022-10-31T02:57:58;15.55;;;6.95;;
1701;SDS011;848;48.354;10.064;2022-10-31T03:00:28;17.67;;;6.57;;
1701;SDS011;848;48.354;10.064;2022-10-31T03:03:01;17.67;;;6.60;;
1701;SDS011;848;48.354;10.064;2022-10-31T03:05:40;17.65;;;6.72;;
1701;SDS011;848;48.354;10.064;2022-10-31T03:08:18;16.25;;;6.75;;
1701;SDS011;848;48.354;10.064;2022-10-31T03:10:51;16.08;;;6.65;;
1701;SDS011;848;48.354;10.064;2022-10-31T03:13:22;21.20;;;6.90;;
1701;SDS011;848;48.354;10.064;2022-10-31T03:15:56;16.08;;;6.68;;
1701;SDS011;848;48.354;10.064;2022-10-31T03:18:33;17.98;;;7.30;;
1701;SDS011;848;48.354;10.064;2022-10-31T03:21:05;18.85;;;6.47;;
1701;SDS011;848;48.354;10.064;2022-10-31T03:23:36;22.13;;;8.50;;
1701;SDS011;848;48.354;10.064;2022-10-31T03:26:05;18.92;;;6.80;;
1701;SDS011;848;48.354;10.064;2022-10-31T03:28:36;15.18;;;5.85;;
1701;SDS011;848;48.354;10.064;2022-10-31T03:31:09;20.25;;;6.30;;
1701;SDS011;848;48.354;10.064;2022-10-31T03:33:43;18.13;;;7.20;;
1701;SDS011;848;48.354;10.064;2022-10-31T03:36:13;15.35;;;6.38;;
1701;SDS011;848;48.354;10.064;2022-10-31T03:38:41;16.65;;;6.25;;
1701;SDS011;848;48.354;10.064;2022-10-31T03:41:14;16.02;;;5.85;;
1701;SDS011;848;48.354;10.064;2022-10-31T03:43:46;18.25;;;6.90;;
1701;SDS011;848;48.354;10.064;2022-10-31T03:46:18;15.05;;;5.88;;
1701;SDS011;848;48.354;10.064;2022-10-31T03:48:46;20.42;;;6.53;;
1701;SDS011;848;48.354;10.064;2022-10-31T03:51:14;16.15;;;5.93;;
1701;SDS011;848;48.354;10.064;2022-10-31T03:53:47;19.15;;;7.22;;
1701;SDS011;848;48.354;10.064;2022-10-31T03:56:19;15.90;;;7.20;;
1701;SDS011;848;48.354;10.064;2022-10-31T03:58:53;17.33;;;6.45;;
1701;SDS011;848;48.354;10.064;2022-10-31T04:01:26;16.98;;;6.70;;
1701;SDS011;848;48.354;10.064;2022-10-31T04:03:57;18.23;;;6.20;;
1701;SDS011;848;48.354;10.064;2022-10-31T04:06:25;17.48;;;6.55;;
1701;SDS011;848;48.354;10.064;2022-10-31T04:08:54;21.67;;;6.78;;
1701;SDS011;848;48.354;10.064;2022-10-31T04:11:25;17.90;;;7.18;;
1701;SDS011;848;48.354;10.064;2022-10-31T04:13:55;17.73;;;6.45;;
1701;SDS011;848;48.354;10.064;2022-10-31T04:16:25;19.05;;;7.30;;
1701;SDS011;848;48.354;10.064;2022-10-31T04:18:55;16.40;;;6.28;;
1701;SDS011;848;48.354;10.064;2022-10-31T04:21:27;17.88;;;7.25;;
1701;SDS011;848;48.354;10.064;2022-10-31T04:23:54;21.27;;;7.93;;
1701;SDS011;848;48.354;10.064;2022-10-31T04:26:22;18.20;;;7.07;;
1701;SDS011;848;48.354;10.064;2022-10-31T04:28:49;25.23;;;7.22;;
1701;SDS011;848;48.354;10.064;2022-10-31T04:31:16;24.30;;;7.60;;
1701;SDS011;848;48.354;10.064;2022-10-31T04:33:45;20.50;;;7.30;;
1701;SDS011;848;48.354;10.064;2022-10-31T04:36:15;18.30;;;7.65;;
1701;SDS011;848;48.354;10.064;2022-10-31T04:38:42;20.92;;;7.65;;
1701;SDS011;848;48.354;10.064;2022-10-31T04:41:09;22.95;;;8.27;;
1701;SDS011;848;48.354;10.064;2022-10-31T04:43:36;21.67;;;7.50;;
1701;SDS011;848;48.354;10.064;2022-10-31T04:46:03;25.60;;;8.68;;
1701;SDS011;848;48.354;10.064;2022-10-31T04:48:30;19.30;;;7.82;;
1701;SDS011;848;48.354;10.064;2022-10-31T04:51:00;23.63;;;8.30;;
1701;SDS011;848;48.354;10.064;2022-10-31T04:53:28;19.70;;;7.22;;
1701;SDS011;848;48.354;10.064;2022-10-31T04:55:57;20.88;;;7.50;;
1701;SDS011;848;48.354;10.064;2022-10-31T04:58:26;20.92;;;7.93;;
1701;SDS011;848;48.354;10.064;2022-10-31T05:00:57;21.70;;;8.05;;
1701;SDS011;848;48.354;10.064;2022-10-31T05:03:24;23.20;;;8.13;;
1701;SDS011;848;48.354;10.064;2022-10-31T05:05:50;19.92;;;8.68;;
1701;SDS011;848;48.354;10.064;2022-10-31T05:08:17;19.25;;;7.85;;
1701;SDS011;848;48.354;10.064;2022-10-31T05:10:46;24.02;;;8.40;;
1701;SDS011;848;48.354;10.064;2022-10-31T05:13:13;21.20;;;8.05;;
1701;SDS011;848;48.354;10.064;2022-10-31T05:15:40;22.88;;;8.77;;
1701;SDS011;848;48.354;10.064;2022-10-31T05:18:07;24.92;;;9.73;;
1701;SDS011;848;48.354;10.064;2022-10-31T05:20:34;35.97;;;10.88;;
1701;SDS011;848;48.354;10.064;2022-10-31T05:23:01;25.40;;;9.80;;
1701;SDS011;848;48.354;10.064;2022-10-31T05:25:28;24.40;;;10.27;;
1701;SDS011;848;48.354;10.064;2022-10-31T05:27:57;23.88;;;9.40;;
1701;SDS011;848;48.354;10.064;2022-10-31T05:30:24;22.90;;;8.70;;
1701;SDS011;848;48.354;10.064;2022-10-31T05:32:52;19.55;;;8.48;;
1701;SDS011;848;48.354;10.064;2022-10-31T05:35:20;21.40;;;7.68;;
1701;SDS011;848;48.354;10.064;2022-10-31T05:37:49;19.98;;;8.77;;
1701;SDS011;848;48.354;10.064;2022-10-31T05:40:17;20.80;;;7.63;;
1701;SDS011;848;48.354;10.064;2022-10-31T05:42:44;27.58;;;8.13;;
1701;SDS011;848;48.354;10.064;2022-10-31T05:45:14;21.60;;;8.85;;
1701;SDS011;848;48.354;10.064;2022-10-31T05:47:42;21.65;;;7.75;;
1701;SDS011;848;48.354;10.064;2022-10-31T05:50:16;22.60;;;9.90;;
1701;SDS011;848;48.354;10.064;2022-10-31T05:52:43;24.00;;;8.65;;
1701;SDS011;848;48.354;10.064;2022-10-31T05:55:10;20.95;;;9.00;;
1701;SDS011;848;48.354;10.064;2022-10-31T05:57:36;20.08;;;8.30;;
1701;SDS011;848;48.354;10.064;2022-10-31T06:00:04;26.50;;;8.07;;
1701;SDS011;848;48.354;10.064;2022-10-31T06:02:33;17.75;;;6.43;;
1701;SDS011;848;48.354;10.064;2022-10-31T06:05:00;26.30;;;8.05;;
1701;SDS011;848;48.354;10.064;2022-10-31T06:07:31;20.42;;;8.20;;
1701;SDS011;848;48.354;10.064;2022-10-31T06:09:58;23.70;;;7.65;;
1701;SDS011;848;48.354;10.064;2022-10-31T06:12:25;32.80;;;9.43;;
1701;SDS011;848;48.354;10.064;2022-10-31T06:14:52;33.00;;;9.07;;
1701;SDS011;848;48.354;10.064;2022-10-31T06:17:19;29.80;;;9.85;;
1701;SDS011;848;48.354;10.064;2022-10-31T06:19:47;28.52;;;9.55;;
1701;SDS011;848;48.354;10.064;2022-10-31T06:22:14;31.60;;;9.45;;
1701;SDS011;848;48.354;10.064;2022-10-31T06:24:41;32.00;;;10.13;;
1701;SDS011;848;48.354;10.064;2022-10-31T06:27:08;31.15;;;10.30;;
1701;SDS011;848;48.354;10.064;2022-10-31T06:29:34;25.75;;;10.38;;
1701;SDS011;848;48.354;10.064;2022-10-31T06:32:05;23.75;;;10.65;;
1701;SDS011;848;48.354;10.064;2022-10-31T06:34:31;41.55;;;16.70;;
1701;SDS011;848;48.354;10.064;2022-10-31T06:37:00;38.90;;;15.18;;
1701;SDS011;848;48.354;10.064;2022-10-31T06:39:27;26.75;;;12.32;;
1701;SDS011;848;48.354;10.064;2022-10-31T06:41:54;24.35;;;10.77;;
1701;SDS011;848;48.354;10.064;2022-10-31T06:44:21;26.73;;;12.18;;
1701;SDS011;848;48.354;10.064;2022-10-31T06:46:48;24.15;;;10.93;;
1701;SDS011;848;48.354;10.064;2022-10-31T06:49:14;25.83;;;10.90;;
1701;SDS011;848;48.354;10.064;2022-10-31T06:51:46;33.58;;;15.02;;
1701;SDS011;848;48.354;10.064;2022-10-31T06:54:15;188.68;;;90.00;;
1701;SDS011;848;48.354;10.064;2022-10-31T06:56:42;133.88;;;66.13;;
1701;SDS011;848;48.354;10.064;2022-10-31T06:59:11;103.47;;;47.63;;
1701;SDS011;848;48.354;10.064;2022-10-31T07:01:38;96.35;;;42.58;;
1701;SDS011;848;48.354;10.064;2022-10-31T07:04:05;44.88;;;19.83;;
1701;SDS011;848;48.354;10.064;2022-10-31T07:06:32;81.57;;;37.17;;
1701;SDS011;848;48.354;10.064;2022-10-31T07:08:59;32.60;;;11.82;;
1701;SDS011;848;48.354;10.064;2022-10-31T07:11:27;18.23;;;9.50;;
1701;SDS011;848;48.354;10.064;2022-10-31T07:13:54;23.73;;;9.80;;
1701;SDS011;848;48.354;10.064;2022-10-31T07:16:21;26.60;;;9.43;;
1701;SDS011;848;48.354;10.064;2022-10-31T07:18:48;19.60;;;9.20;;
1701;SDS011;848;48.354;10.064;2022-10-31T07:21:15;18.80;;;9.55;;
1701;SDS011;848;48.354;10.064;2022-10-31T07:23:42;22.23;;;10.07;;
1701;SDS011;848;48.354;10.064;2022-10-31T07:26:09;20.98;;;10.10;;
1701;SDS011;848;48.354;10.064;2022-10-31T07:28:38;26.38;;;14.75;;
1701;SDS011;848;48.354;10.064;2022-10-31T07:31:05;33.80;;;16.77;;
1701;SDS011;848;48.354;10.064;2022-10-31T07:33:32;21.55;;;11.52;;
1701;SDS011;848;48.354;10.064;2022-10-31T07:35:59;23.73;;;12.45;;
1701;SDS011;848;48.354;10.064;2022-10-31T07:38:26;21.83;;;10.70;;
1701;SDS011;848;48.354;10.064;2022-10-31T07:40:53;23.95;;;12.40;;
1701;SDS011;848;48.354;10.064;2022-10-31T07:43:20;43.80;;;19.40;;
1701;SDS011;848;48.354;10.064;2022-10-31T07:45:52;43.88;;;16.38;;
1701;SDS011;848;48.354;10.064;2022-10-31T07:48:19;26.80;;;13.60;;
1701;SDS011;848;48.354;10.064;2022-10-31T07:50:46;30.05;;;14.45;;
1701;SDS011;848;48.354;10.064;2022-10-31T07:53:14;32.92;;;15.02;;
1701;SDS011;848;48.354;10.064;2022-10-31T07:55:41;30.13;;;15.65;;
1701;SDS011;848;48.354;10.064;2022-10-31T07:58:09;24.60;;;13.20;;
1701;SDS011;848;48.354;10.064;2022-10-31T08:00:37;24.45;;;13.23;;
1701;SDS011;848;48.354;10.064;2022-10-31T08:03:07;25.90;;;13.30;;
1701;SDS011;848;48.354;10.064;2022-10-31T08:05:36;29.67;;;12.60;;
1701;SDS011;848;48.354;10.064;2022-10-31T08:08:03;23.85;;;11.95;;
1701;SDS011;848;48.354;10.064;2022-10-31T08:10:31;27.95;;;12.73;;
1701;SDS011;848;48.354;10.064;2022-10-31T08:12:59;42.35;;;15.77;;
1701;SDS011;848;48.354;10.064;2022-10-31T08:15:27;34.70;;;15.45;;
1701;SDS011;848;48.354;10.064;2022-10-31T08:17:54;31.48;;;13.35;;
1701;SDS011;848;48.354;10.064;2022-10-31T08:20:23;29.27;;;14.18;;
1701;SDS011;848;48.354;10.064;2022-10-31T08:22:54;28.75;;;13.93;;
1701;SDS011;848;48.354;10.064;2022-10-31T08:25:23;26.23;;;13.52;;
1701;SDS011;848;48.354;10.064;2022-10-31T08:27:50;27.58;;;13.50;;
1701;SDS011;848;48.354;10.064;2022-10-31T08:30:18;27.98;;;13.93;;
1701;SDS011;848;48.354;10.064;2022-10-31T08:32:56;27.00;;;13.82;;
1701;SDS011;848;48.354;10.064;2022-10-31T08:35:26;27.95;;;14.65;;
1701;SDS011;848;48.354;10.064;2022-10-31T08:37:53;23.17;;;12.10;;
1701;SDS011;848;48.354;10.064;2022-10-31T08:40:20;23.40;;;13.32;;
1701;SDS011;848;48.354;10.064;2022-10-31T08:42:54;23.05;;;12.52;;
1701;SDS011;848;48.354;10.064;2022-10-31T08:45:22;26.60;;;13.50;;
1701;SDS011;848;48.354;10.064;2022-10-31T08:47:49;26.27;;;13.07;;
1701;SDS011;848;48.354;10.064;2022-10-31T08:50:17;24.42;;;14.75;;
1701;SDS011;848;48.354;10.064;2022-10-31T08:52:45;26.70;;;15.23;;
1701;SDS011;848;48.354;10.064;2022-10-31T08:55:12;27.42;;;16.35;;
1701;SDS011;848;48.354;10.064;2022-10-31T08:57:39;27.10;;;16.33;;
1701;SDS011;848;48.354;10.064;2022-10-31T09:00:07;25.88;;;14.38;;
1701;SDS011;848;48.354;10.064;2022-10-31T09:02:34;25.15;;;14.27;;
1701;SDS011;848;48.354;10.064;2022-10-31T09:05:03;35.30;;;16.17;;
1701;SDS011;848;48.354;10.064;2022-10-31T09:07:32;27.10;;;16.17;;
1701;SDS011;848;48.354;10.064;2022-10-31T09:10:00;28.73;;;15.70;;
1701;SDS011;848;48.354;10.064;2022-10-31T09:12:27;25.48;;;15.00;;
1701;SDS011;848;48.354;10.064;2022-10-31T09:14:54;25.42;;;15.05;;
1701;SDS011;848;48.354;10.064;2022-10-31T09:17:21;32.53;;;18.17;;
1701;SDS011;848;48.354;10.064;2022-10-31T09:19:48;29.65;;;17.20;;
1701;SDS011;848;48.354;10.064;2022-10-31T09:22:15;27.27;;;14.73;;
1701;SDS011;848;48.354;10.064;2022-10-31T09:24:42;26.83;;;14.60;;
1701;SDS011;848;48.354;10.064;2022-10-31T09:27:10;27.38;;;14.35;;
1701;SDS011;848;48.354;10.064;2022-10-31T09:29:38;30.98;;;14.57;;
1701;SDS011;848;48.354;10.064;2022-10-31T09:32:05;25.45;;;14.10;;
1701;SDS011;848;48.354;10.064;2022-10-31T09:34:32;27.85;;;14.93;;
1701;SDS011;848;48.354;10.064;2022-10-31T09:36:59;29.55;;;14.02;;
1701;SDS011;848;48.354;10.064;2022-10-31T09:39:26;28.30;;;15.02;;
1701;SDS011;848;48.354;10.064;2022-10-31T09:41:58;27.17;;;13.95;;
1701;SDS011;848;48.354;10.064;2022-10-31T09:44:38;26.88;;;13.80;;
1701;SDS011;848;48.354;10.064;2022-10-31T09:47:15;34.65;;;17.45;;
1701;SDS011;848;48.354;10.064;2022-10-31T09:49:53;27.42;;;14.48;;
1701;SDS011;848;48.354;10.064;2022-10-31T09:52:29;24.95;;;14.25;;
1701;SDS011;848;48.354;10.064;2022-10-31T09:55:00;28.65;;;16.30;;
1701;SDS011;848;48.354;10.064;2022-10-31T09:57:33;30.65;;;15.48;;
1701;SDS011;848;48.354;10.064;2022-10-31T10:00:04;26.92;;;15.52;;
1701;SDS011;848;48.354;10.064;2022-10-31T10:02:34;26.08;;;15.25;;
1701;SDS011;848;48.354;10.064;2022-10-31T10:05:04;26.20;;;15.82;;
1701;SDS011;848;48.354;10.064;2022-10-31T10:07:38;28.15;;;14.73;;
1701;SDS011;848;48.354;10.064;2022-10-31T10:10:13;31.23;;;15.52;;
1701;SDS011;848;48.354;10.064;2022-10-31T10:12:46;34.25;;;15.50;;
1701;SDS011;848;48.354;10.064;2022-10-31T10:18:22;27.20;;;15.88;;
1701;SDS011;848;48.354;10.064;2022-10-31T10:21:01;26.70;;;15.75;;
1701;SDS011;848;48.354;10.064;2022-10-31T10:23:41;28.67;;;16.20;;
1701;SDS011;848;48.354;10.064;2022-10-31T10:26:18;31.77;;;16.42;;
1701;SDS011;848;48.354;10.064;2022-10-31T10:28:47;30.20;;;16.33;;
1701;SDS011;848;48.354;10.064;2022-10-31T10:31:20;28.67;;;17.10;;
1701;SDS011;848;48.354;10.064;2022-10-31T10:33:55;30.55;;;16.80;;
1701;SDS011;848;48.354;10.064;2022-10-31T10:36:30;25.65;;;14.45;;
1701;SDS011;848;48.354;10.064;2022-10-31T10:39:02;30.58;;;16.25;;
1701;SDS011;848;48.354;10.064;2022-10-31T10:41:33;29.02;;;15.98;;
1701;SDS011;848;48.354;10.064;2022-10-31T10:44:00;29.65;;;15.20;;
1701;SDS011;848;48.354;10.064;2022-10-31T10:46:32;27.00;;;15.27;;
1701;SDS011;848;48.354;10.064;2022-10-31T10:49:24;24.83;;;14.93;;
1701;SDS011;848;48.354;10.064;2022-10-31T10:51:59;28.95;;;15.93;;
1701;SDS011;848;48.354;10.064;2022-10-31T10:54:43;26.85;;;15.65;;
1701;SDS011;848;48.354;10.064;2022-10-31T10:57:22;27.23;;;16.13;;
1701;SDS011;848;48.354;10.064;2022-10-31T10:59:57;26.90;;;15.40;;
1701;SDS011;848;48.354;10.064;2022-10-31T11:02:31;27.73;;;16.30;;
1701;SDS011;848;48.354;10.064;2022-10-31T11:05:00;28.67;;;17.80;;
1701;SDS011;848;48.354;10.064;2022-10-31T11:07:37;26.95;;;16.13;;
1701;SDS011;848;48.354;10.064;2022-10-31T11:10:05;29.27;;;16.05;;
1701;SDS011;848;48.354;10.064;2022-10-31T11:12:38;32.53;;;15.98;;
1701;SDS011;848;48.354;10.064;2022-10-31T11:15:07;30.40;;;17.10;;
1701;SDS011;848;48.354;10.064;2022-10-31T11:17:52;26.33;;;16.05;;
1701;SDS011;848;48.354;10.064;2022-10-31T11:20:24;31.20;;;17.73;;
1701;SDS011;848;48.354;10.064;2022-10-31T11:23:03;30.48;;;17.70;;
1701;SDS011;848;48.354;10.064;2022-10-31T11:25:47;43.47;;;19.50;;
1701;SDS011;848;48.354;10.064;2022-10-31T11:28:15;32.78;;;17.98;;
1701;SDS011;848;48.354;10.064;2022-10-31T11:30:43;34.15;;;18.60;;
1701;SDS011;848;48.354;10.064;2022-10-31T11:33:16;30.75;;;16.77;;
1701;SDS011;848;48.354;10.064;2022-10-31T11:35:47;35.33;;;18.92;;
1701;SDS011;848;48.354;10.064;2022-10-31T11:38:15;35.08;;;19.33;;
1701;SDS011;848;48.354;10.064;2022-10-31T11:40:55;33.50;;;18.92;;
1701;SDS011;848;48.354;10.064;2022-10-31T11:43:27;32.45;;;18.73;;
1701;SDS011;848;48.354;10.064;2022-10-31T11:45:54;32.50;;;18.67;;
1701;SDS011;848;48.354;10.064;2022-10-31T11:48:23;43.08;;;20.15;;
1701;SDS011;848;48.354;10.064;2022-10-31T11:50:51;31.15;;;17.55;;
1701;SDS011;848;48.354;10.064;2022-10-31T11:53:22;30.95;;;17.13;;
1701;SDS011;848;48.354;10.064;2022-10-31T11:56:00;34.03;;;18.98;;
1701;SDS011;848;48.354;10.064;2022-10-31T11:58:29;33.65;;;18.38;;
1701;SDS011;848;48.354;10.064;2022-10-31T12:00:57;32.10;;;16.67;;
1701;SDS011;848;48.354;10.064;2022-10-31T12:03:33;29.58;;;16.90;;
1701;SDS011;848;48.354;10.064;2022-10-31T12:06:12;28.42;;;16.30;;
1701;SDS011;848;48.354;10.064;2022-10-31T12:08:43;27.52;;;16.35;;
1701;SDS011;848;48.354;10.064;2022-10-31T12:11:18;29.40;;;17.10;;
1701;SDS011;848;48.354;10.064;2022-10-31T12:13:59;32.55;;;18.15;;
1701;SDS011;848;48.354;10.064;2022-10-31T12:16:42;32.65;;;16.67;;
1701;SDS011;848;48.354;10.064;2022-10-31T12:19:18;30.48;;;17.25;;
1701;SDS011;848;48.354;10.064;2022-10-31T12:21:56;31.45;;;18.40;;
1701;SDS011;848;48.354;10.064;2022-10-31T12:24:37;31.25;;;16.50;;
1701;SDS011;848;48.354;10.064;2022-10-31T12:27:27;30.90;;;16.45;;
1701;SDS011;848;48.354;10.064;2022-10-31T12:30:09;30.23;;;15.98;;
1701;SDS011;848;48.354;10.064;2022-10-31T12:35:49;32.05;;;15.55;;
1701;SDS011;848;48.354;10.064;2022-10-31T12:38:30;28.52;;;15.32;;
1701;SDS011;848;48.354;10.064;2022-10-31T12:41:12;31.38;;;15.45;;
1701;SDS011;848;48.354;10.064;2022-10-31T12:43:54;29.27;;;13.80;;
1701;SDS011;848;48.354;10.064;2022-10-31T12:46:26;35.92;;;14.30;;
1701;SDS011;848;48.354;10.064;2022-10-31T12:49:24;28.38;;;14.00;;
1701;SDS011;848;48.354;10.064;2022-10-31T12:52:10;29.95;;;13.68;;
1701;SDS011;848;48.354;10.064;2022-10-31T12:54:49;24.42;;;12.30;;
1701;SDS011;848;48.354;10.064;2022-10-31T12:57:27;28.65;;;11.43;;
1701;SDS011;848;48.354;10.064;2022-10-31T12:59:57;22.33;;;12.48;;
1701;SDS011;848;48.354;10.064;2022-10-31T13:02:28;29.20;;;13.13;;
1701;SDS011;848;48.354;10.064;2022-10-31T13:04:58;29.85;;;13.45;;
1701;SDS011;848;48.354;10.064;2022-10-31T13:07:30;30.23;;;13.10;;
1701;SDS011;848;48.354;10.064;2022-10-31T13:10:03;25.90;;;12.50;;
1701;SDS011;848;48.354;10.064;2022-10-31T13:12:36;26.33;;;14.35;;
1701;SDS011;848;48.354;10.064;2022-10-31T13:15:05;30.08;;;13.93;;
1701;SDS011;848;48.354;10.064;2022-10-31T13:17:43;26.00;;;13.00;;
1701;SDS011;848;48.354;10.064;2022-10-31T13:20:14;24.63;;;13.60;;
1701;SDS011;848;48.354;10.064;2022-10-31T13:22:49;27.10;;;12.75;;
1701;SDS011;848;48.354;10.064;2022-10-31T13:25:19;39.35;;;14.07;;
1701;SDS011;848;48.354;10.064;2022-10-31T13:27:51;28.98;;;13.60;;
1701;SDS011;848;48.354;10.064;2022-10-31T13:30:22;28.92;;;14.13;;
1701;SDS011;848;48.354;10.064;2022-10-31T13:32:51;28.10;;;13.70;;
1701;SDS011;848;48.354;10.064;2022-10-31T13:35:26;25.17;;;13.15;;
1701;SDS011;848;48.354;10.064;2022-10-31T13:38:02;26.35;;;14.13;;
1701;SDS011;848;48.354;10.064;2022-10-31T13:40:37;26.20;;;13.10;;
1701;SDS011;848;48.354;10.064;2022-10-31T13:43:13;28.98;;;13.00;;
1701;SDS011;848;48.354;10.064;2022-10-31T13:45:49;30.52;;;15.52;;
1701;SDS011;848;48.354;10.064;2022-10-31T13:48:18;31.30;;;15.48;;
1701;SDS011;848;48.354;10.064;2022-10-31T13:51:01;26.08;;;14.00;;
1701;SDS011;848;48.354;10.064;2022-10-31T13:56:25;29.80;;;14.60;;
1701;SDS011;848;48.354;10.064;2022-10-31T13:58:59;26.25;;;15.02;;
1701;SDS011;848;48.354;10.064;2022-10-31T14:01:28;32.08;;;16.40;;
1701;SDS011;848;48.354;10.064;2022-10-31T14:03:57;28.00;;;15.57;;
1701;SDS011;848;48.354;10.064;2022-10-31T14:06:34;30.15;;;15.25;;
1701;SDS011;848;48.354;10.064;2022-10-31T14:09:06;32.83;;;15.85;;
1701;SDS011;848;48.354;10.064;2022-10-31T14:11:45;30.15;;;16.90;;
1701;SDS011;848;48.354;10.064;2022-10-31T14:14:13;31.77;;;15.30;;
1701;SDS011;848;48.354;10.064;2022-10-31T14:16:42;30.85;;;15.60;;
1701;SDS011;848;48.354;10.064;2022-10-31T14:19:14;33.13;;;15.85;;
1701;SDS011;848;48.354;10.064;2022-10-31T14:21:47;30.83;;;16.50;;
1701;SDS011;848;48.354;10.064;2022-10-31T14:24:30;33.17;;;16.42;;
1701;SDS011;848;48.354;10.064;2022-10-31T14:26:59;36.85;;;15.82;;
1701;SDS011;848;48.354;10.064;2022-10-31T14:29:28;33.08;;;17.27;;
1701;SDS011;848;48.354;10.064;2022-10-31T14:32:01;30.83;;;17.48;;
1701;SDS011;848;48.354;10.064;2022-10-31T14:34:36;30.23;;;17.08;;
1701;SDS011;848;48.354;10.064;2022-10-31T14:37:15;32.33;;;16.23;;
1701;SDS011;848;48.354;10.064;2022-10-31T14:40:10;37.60;;;17.58;;
1701;SDS011;848;48.354;10.064;2022-10-31T14:42:50;33.63;;;18.10;;
1701;SDS011;848;48.354;10.064;2022-10-31T14:45:44;36.72;;;18.30;;
1701;SDS011;848;48.354;10.064;2022-10-31T14:48:25;34.75;;;18.23;;
1701;SDS011;848;48.354;10.064;2022-10-31T14:51:07;31.52;;;17.85;;
1701;SDS011;848;48.354;10.064;2022-10-31T14:53:42;33.60;;;18.58;;
1701;SDS011;848;48.354;10.064;2022-10-31T14:56:16;34.53;;;18.25;;
1701;SDS011;848;48.354;10.064;2022-10-31T14:58:48;35.38;;;18.52;;
1701;SDS011;848;48.354;10.064;2022-10-31T15:01:18;37.47;;;19.20;;
1701;SDS011;848;48.354;10.064;2022-10-31T15:03:49;31.42;;;18.15;;
1701;SDS011;848;48.354;10.064;2022-10-31T15:06:17;39.78;;;17.25;;
1701;SDS011;848;48.354;10.064;2022-10-31T15:08:47;32.90;;;18.17;;
1701;SDS011;848;48.354;10.064;2022-10-31T15:11:17;34.65;;;17.30;;
1701;SDS011;848;48.354;10.064;2022-10-31T15:13:46;38.65;;;20.17;;
1701;SDS011;848;48.354;10.064;2022-10-31T15:16:14;30.52;;;18.05;;
1701;SDS011;848;48.354;10.064;2022-10-31T15:18:46;39.17;;;20.45;;
1701;SDS011;848;48.354;10.064;2022-10-31T15:21:23;33.92;;;18.00;;
1701;SDS011;848;48.354;10.064;2022-10-31T15:23:53;38.70;;;18.20;;
1701;SDS011;848;48.354;10.064;2022-10-31T15:26:24;37.00;;;20.27;;
1701;SDS011;848;48.354;10.064;2022-10-31T15:28:58;34.05;;;19.05;;
1701;SDS011;848;48.354;10.064;2022-10-31T15:31:27;37.55;;;21.05;;